createdAt,value
2019-05-21T00:00:26.972Z,27.80
2019-05-21T00:03:15.123Z,31.10
2019-05-21T00:05:43.814Z,33.43
2019-05-21T00:08:12.357Z,25.80
2019-05-21T00:10:40.926Z,28.47
2019-05-21T00:13:09.491Z,39.83
2019-05-21T00:15:37.869Z,37.70
2019-05-21T00:18:06.615Z,38.67
2019-05-21T00:20:35.135Z,35.80
2019-05-21T00:23:03.624Z,36.37
2019-05-21T00:25:32.093Z,41.10
2019-05-21T00:28:12.398Z,51.83
2019-05-21T00:30:58.801Z,53.20
2019-05-21T00:33:45.439Z,50.83
2019-05-21T00:36:33.622Z,50.43
2019-05-21T00:39:26.430Z,52.90
2019-05-21T00:42:03.370Z,56.00
2019-05-21T00:44:33.205Z,48.13
2019-05-21T00:47:02.057Z,51.83
2019-05-21T00:49:31.010Z,50.50
2019-05-21T00:52:07.992Z,48.77
2019-05-21T00:54:31.325Z,58.43
2019-05-21T00:57:00.054Z,55.70
2019-05-21T00:59:28.918Z,51.47
2019-05-21T01:01:57.451Z,53.83
2019-05-21T01:04:26.338Z,56.80
2019-05-21T01:06:55.255Z,55.83
2019-05-21T01:09:23.969Z,48.07
2019-05-21T01:11:53.916Z,50.07
2019-05-21T01:14:27.346Z,51.57
2019-05-21T01:16:56.249Z,53.30
2019-05-21T01:19:24.653Z,42.73
2019-05-21T01:21:53.412Z,45.67
2019-05-21T01:24:27.635Z,48.93
2019-05-21T01:26:56.319Z,44.00
2019-05-21T01:29:25.289Z,47.80
2019-05-21T01:31:53.915Z,40.43
2019-05-21T01:34:23.150Z,49.83
2019-05-21T01:36:52.278Z,42.13
2019-05-21T01:39:26.301Z,48.33
2019-05-21T01:41:55.118Z,49.90
2019-05-21T01:44:23.977Z,40.80
2019-05-21T01:46:53.324Z,46.33
2019-05-21T01:49:25.417Z,45.10
2019-05-21T01:52:00.297Z,49.40
2019-05-21T01:54:29.443Z,43.53
2019-05-21T01:57:00.788Z,38.00
2019-05-21T01:59:29.885Z,42.63
2019-05-21T02:01:58.529Z,37.53
2019-05-21T02:04:28.421Z,33.27
2019-05-21T02:06:57.337Z,37.77
2019-05-21T02:09:26.109Z,40.10
2019-05-21T02:11:57.778Z,37.77
2019-05-21T02:14:44.095Z,35.97
2019-05-21T02:17:19.658Z,41.07
2019-05-21T02:19:51.053Z,38.17
2019-05-21T02:22:19.655Z,40.70
2019-05-21T02:25:29.095Z,38.43
2019-05-21T02:28:11.523Z,38.73
2019-05-21T02:30:43.348Z,38.47
2019-05-21T02:33:13.823Z,38.83
2019-05-21T02:35:54.157Z,36.53
2019-05-21T02:38:40.514Z,37.30
2019-05-21T02:41:10.867Z,39.13
2019-05-21T02:44:06.800Z,39.87
2019-05-21T02:46:36.011Z,30.10
2019-05-21T02:49:09.903Z,34.20
2019-05-21T02:51:44.016Z,30.93
2019-05-21T02:54:10.746Z,30.53
2019-05-21T02:56:43.420Z,34.77
2019-05-21T02:59:34.149Z,30.37
2019-05-21T03:02:42.140Z,31.30
2019-05-21T03:05:12.729Z,28.60
2019-05-21T03:07:42.058Z,26.07
2019-05-21T03:10:16.299Z,25.80
2019-05-21T03:12:58.473Z,28.67
2019-05-21T03:15:31.393Z,29.23
2019-05-21T03:18:00.979Z,28.00
2019-05-21T03:20:36.862Z,27.97
2019-05-21T03:23:08.617Z,29.13
2019-05-21T03:26:14.250Z,32.43
2019-05-21T03:31:27.679Z,34.67
2019-05-21T03:34:11.324Z,33.83
2019-05-21T03:37:14.335Z,33.73
2019-05-21T03:39:32.580Z,44.40
2019-05-21T03:42:13.123Z,46.33
2019-05-21T03:44:58.347Z,48.97
2019-05-21T03:50:17.692Z,60.37
2019-05-21T03:53:05.719Z,55.33
2019-05-21T03:58:41.603Z,67.17
2019-05-21T04:01:12.023Z,68.13
2019-05-21T04:04:01.718Z,71.40
2019-05-21T04:06:31.567Z,71.30
2019-05-21T04:09:06.244Z,64.73
2019-05-21T04:11:42.416Z,60.10
2019-05-21T04:14:15.408Z,69.60
2019-05-21T04:17:13.298Z,60.63
2019-05-21T04:20:09.209Z,64.87
2019-05-21T04:22:52.562Z,60.80
2019-05-21T04:25:45.124Z,62.77
2019-05-21T04:28:33.689Z,63.13
2019-05-21T04:31:37.243Z,65.83
2019-05-21T04:34:37.439Z,62.00
2019-05-21T04:37:20.983Z,61.97
2019-05-21T04:39:50.100Z,59.00
2019-05-21T04:42:22.340Z,66.60
2019-05-21T04:44:51.334Z,51.40
2019-05-21T04:47:24.094Z,55.10
2019-05-21T04:49:52.974Z,54.70
2019-05-21T04:52:27.595Z,62.43
2019-05-21T04:54:56.607Z,50.20
2019-05-21T04:57:25.511Z,51.97
2019-05-21T05:00:05.162Z,55.67
2019-05-21T05:02:35.315Z,53.70
2019-05-21T05:05:04.504Z,51.00
2019-05-21T05:07:36.417Z,57.43
2019-05-21T05:10:07.969Z,59.37
2019-05-21T05:12:36.489Z,54.17
2019-05-21T05:15:05.453Z,70.23
2019-05-21T05:17:34.117Z,62.60
2019-05-21T05:20:02.980Z,56.47
2019-05-21T05:22:34.979Z,55.40
2019-05-21T05:25:03.767Z,52.33
2019-05-21T05:27:35.679Z,47.63
2019-05-21T05:30:35.946Z,55.53
2019-05-21T05:33:05.217Z,52.93
2019-05-21T05:35:34.697Z,55.60
2019-05-21T05:38:15.536Z,51.00
2019-05-21T05:40:47.138Z,42.37
2019-05-21T05:43:15.665Z,49.83
2019-05-21T05:45:44.762Z,42.70
2019-05-21T05:48:27.228Z,44.27
2019-05-21T05:50:57.374Z,52.77
2019-05-21T05:57:57.025Z,46.23
2019-05-21T06:00:54.510Z,40.40
2019-05-21T06:04:08.466Z,47.40
2019-05-21T06:07:17.828Z,43.20
2019-05-21T06:10:22.662Z,45.70
2019-05-21T06:12:51.327Z,41.40
2019-05-21T06:15:39.207Z,32.33
2019-05-21T06:18:10.068Z,41.67
2019-05-21T06:20:38.656Z,42.27
2019-05-21T06:23:12.248Z,38.53
2019-05-21T06:25:50.491Z,36.47
2019-05-21T06:28:19.174Z,39.30
2019-05-21T06:30:48.081Z,33.47
2019-05-21T06:33:16.936Z,41.97
2019-05-21T06:35:50.884Z,43.80
2019-05-21T06:38:19.903Z,43.47
2019-05-21T06:40:48.440Z,43.60
2019-05-21T06:43:20.478Z,42.83
2019-05-21T06:45:49.177Z,46.77
2019-05-21T06:48:18.693Z,39.37
2019-05-21T06:50:47.226Z,39.47
2019-05-21T06:53:15.836Z,38.00
2019-05-21T06:55:44.562Z,40.13
2019-05-21T06:58:13.344Z,32.83
2019-05-21T07:00:42.243Z,41.43
2019-05-21T07:03:11.084Z,38.60
2019-05-21T07:05:56.068Z,40.63
2019-05-21T07:08:10.176Z,34.80
2019-05-21T07:10:38.725Z,37.90
2019-05-21T07:13:07.416Z,24.23
2019-05-21T07:15:36.101Z,30.63
2019-05-21T07:18:04.893Z,30.17
2019-05-21T07:20:33.573Z,21.17
2019-05-21T07:23:02.105Z,19.13
2019-05-21T07:25:30.690Z,26.03
2019-05-21T07:27:59.526Z,22.33
2019-05-21T07:30:29.403Z,23.53
2019-05-21T07:32:58.320Z,20.37
2019-05-21T07:35:28.989Z,21.60
2019-05-21T07:37:57.567Z,18.53
2019-05-21T07:40:26.277Z,18.10
2019-05-21T07:42:54.957Z,17.80
2019-05-21T07:45:23.678Z,17.90
2019-05-21T07:47:52.334Z,19.47
2019-05-21T07:50:21.402Z,17.97
2019-05-21T07:52:50.250Z,18.17
2019-05-21T07:55:18.847Z,18.17
2019-05-21T07:57:47.488Z,20.37
2019-05-21T08:00:16.101Z,18.90
2019-05-21T08:02:44.684Z,19.07
2019-05-21T08:05:13.392Z,14.20
2019-05-21T08:07:45.091Z,16.43
2019-05-21T08:10:13.482Z,15.80
2019-05-21T08:12:42.034Z,17.60
2019-05-21T08:15:10.981Z,16.37
2019-05-21T08:17:39.739Z,14.93
2019-05-21T08:20:10.597Z,13.47
2019-05-21T08:22:39.549Z,16.03
2019-05-21T08:25:08.154Z,17.80
2019-05-21T08:27:36.699Z,16.83
2019-05-21T08:30:05.208Z,14.90
2019-05-21T08:32:33.620Z,12.77
2019-05-21T08:35:02.357Z,14.03
2019-05-21T08:37:32.439Z,12.47
2019-05-21T08:40:01.012Z,15.10
2019-05-21T08:42:29.489Z,9.30
2019-05-21T08:44:57.831Z,10.67
2019-05-21T08:47:26.352Z,11.07
2019-05-21T08:49:54.813Z,12.83
2019-05-21T08:52:23.321Z,11.50
2019-05-21T08:54:55.927Z,12.73
2019-05-21T08:57:22.063Z,9.47
2019-05-21T08:59:50.561Z,9.37
2019-05-21T09:02:19.298Z,11.13
2019-05-21T09:04:51.621Z,11.50
2019-05-21T09:07:20.204Z,11.50
2019-05-21T09:09:51.311Z,14.07
2019-05-21T09:12:21.665Z,11.97
2019-05-21T09:14:50.846Z,7.53
2019-05-21T09:17:45.233Z,14.77
2019-05-21T09:20:15.344Z,10.07
2019-05-21T09:22:59.152Z,9.43
2019-05-21T09:28:42.797Z,10.03
2019-05-21T09:31:20.828Z,12.60
2019-05-21T09:33:54.661Z,8.10
2019-05-21T09:36:26.623Z,9.10
2019-05-21T09:38:55.231Z,9.73
2019-05-21T09:41:25.868Z,10.83
2019-05-21T09:43:54.928Z,8.23
2019-05-21T09:46:23.687Z,7.53
2019-05-21T09:48:54.278Z,11.40
2019-05-21T09:51:22.774Z,7.97
2019-05-21T09:53:51.283Z,7.30
2019-05-21T09:56:37.402Z,9.20
2019-05-21T09:59:25.234Z,9.73
2019-05-21T10:01:59.548Z,9.80
2019-05-21T10:04:28.356Z,9.97
2019-05-21T10:06:57.202Z,7.83
2019-05-21T10:09:35.817Z,9.33
2019-05-21T10:12:25.873Z,10.23
2019-05-21T10:14:54.822Z,10.20
2019-05-21T10:17:26.496Z,9.97
2019-05-21T10:19:58.642Z,13.70
2019-05-21T10:22:26.076Z,13.17
2019-05-21T10:24:54.605Z,9.67
2019-05-21T10:27:23.152Z,14.17
2019-05-21T10:29:51.872Z,14.13
2019-05-21T10:32:21.461Z,11.00
2019-05-21T10:34:50.080Z,8.73
2019-05-21T10:37:18.896Z,10.33
2019-05-21T10:39:54.520Z,10.40
2019-05-21T10:42:23.131Z,10.33
2019-05-21T10:44:51.716Z,11.47
2019-05-21T10:47:20.222Z,10.03
2019-05-21T10:49:48.985Z,10.03
2019-05-21T10:52:23.542Z,11.67
2019-05-21T10:54:52.288Z,10.77
2019-05-21T10:57:24.757Z,8.03
2019-05-21T10:59:53.468Z,14.90
2019-05-21T11:02:40.166Z,10.37
2019-05-21T11:05:18.524Z,13.23
2019-05-21T11:07:47.039Z,8.70
2019-05-21T11:10:19.104Z,11.13
2019-05-21T11:12:47.784Z,14.37
2019-05-21T11:15:16.781Z,10.33
2019-05-21T11:17:53.682Z,9.60
2019-05-21T11:20:19.644Z,12.00
2019-05-21T11:22:48.676Z,9.17
2019-05-21T11:25:17.277Z,12.63
2019-05-21T11:27:45.973Z,10.77
2019-05-21T11:30:14.740Z,9.50
2019-05-21T11:32:47.678Z,12.13
2019-05-21T11:35:13.752Z,10.73
2019-05-21T11:37:42.498Z,9.03
2019-05-21T11:40:14.359Z,9.67
2019-05-21T11:42:43.432Z,6.87
2019-05-21T11:45:12.315Z,12.13
2019-05-21T11:47:40.992Z,11.73
2019-05-21T11:50:09.423Z,6.67
2019-05-21T11:52:40.207Z,10.57
2019-05-21T11:55:08.802Z,10.90
2019-05-21T11:57:37.624Z,10.83
2019-05-21T12:00:06.434Z,10.40
2019-05-21T12:02:35.412Z,13.10
2019-05-21T12:05:04.321Z,15.83
2019-05-21T12:07:32.977Z,10.67
2019-05-21T12:10:01.794Z,14.77
2019-05-21T12:12:31.907Z,14.90
2019-05-21T12:15:03.413Z,12.07
2019-05-21T12:17:33.989Z,13.93
2019-05-21T12:20:05.312Z,12.93
2019-05-21T12:22:34.019Z,15.30
2019-05-21T12:25:02.874Z,13.03
2019-05-21T12:27:31.723Z,13.90
2019-05-21T12:30:00.401Z,12.53
2019-05-21T12:32:31.629Z,15.87
2019-05-21T12:35:00.154Z,16.20
2019-05-21T12:37:32.604Z,15.77
2019-05-21T12:40:04.913Z,11.30
2019-05-21T12:42:33.922Z,15.77
2019-05-21T12:45:02.782Z,12.57
2019-05-21T12:47:31.631Z,13.00
2019-05-21T12:50:00.434Z,12.67
2019-05-21T12:52:33.799Z,14.03
2019-05-21T12:55:02.190Z,13.27
2019-05-21T12:57:30.935Z,15.03
2019-05-21T12:59:59.848Z,11.67
2019-05-21T13:02:30.934Z,11.20
2019-05-21T13:04:59.816Z,13.73
2019-05-21T13:07:30.443Z,14.80
2019-05-21T13:09:59.299Z,12.10
2019-05-21T13:12:27.982Z,16.17
2019-05-21T13:14:57.799Z,15.00
2019-05-21T13:17:26.902Z,17.37
2019-05-21T13:19:56.110Z,15.80
2019-05-21T13:22:32.929Z,17.27
2019-05-21T13:25:09.694Z,12.27
2019-05-21T13:27:38.472Z,15.10
2019-05-21T13:30:08.193Z,16.60
2019-05-21T13:32:39.580Z,12.63
2019-05-21T13:35:08.228Z,10.60
2019-05-21T13:37:37.386Z,13.67
2019-05-21T13:40:07.071Z,14.57
2019-05-21T13:42:36.161Z,15.37
2019-05-21T13:45:05.724Z,17.37
2019-05-21T13:47:35.888Z,15.60
2019-05-21T13:50:05.225Z,11.03
2019-05-21T13:52:34.289Z,12.80
2019-05-21T13:55:06.738Z,15.80
2019-05-21T13:57:40.276Z,13.93
2019-05-21T14:00:28.750Z,13.93
2019-05-21T14:02:57.932Z,15.60
2019-05-21T14:05:27.085Z,14.83
2019-05-21T14:07:55.932Z,17.53
2019-05-21T14:10:24.880Z,12.47
2019-05-21T14:12:58.096Z,12.90
2019-05-21T14:15:52.107Z,16.67
2019-05-21T14:18:28.445Z,13.63
2019-05-21T14:21:12.144Z,17.13
2019-05-21T14:23:48.132Z,15.13
2019-05-21T14:26:30.367Z,18.43
2019-05-21T14:38:00.236Z,13.50
2019-05-21T14:40:34.158Z,16.07
2019-05-21T14:43:38.020Z,13.23
2019-05-21T14:49:19.999Z,15.03
2019-05-21T14:51:50.223Z,14.10
2019-05-21T14:54:29.969Z,12.53
2019-05-21T14:57:07.864Z,16.27
2019-05-21T14:59:42.225Z,15.10
2019-05-21T15:02:18.103Z,11.00
2019-05-21T15:05:05.878Z,16.03
2019-05-21T15:07:49.801Z,16.70
2019-05-21T15:10:47.262Z,13.13
2019-05-21T15:13:37.127Z,14.20
2019-05-21T15:41:12.340Z,13.30
2019-05-21T15:43:51.818Z,14.03
2019-05-21T15:47:37.511Z,17.40
2019-05-21T15:49:42.327Z,17.57
2019-05-21T15:58:42.756Z,18.57
2019-05-21T16:01:13.579Z,16.83
2019-05-21T16:03:48.241Z,16.67
2019-05-21T16:06:18.545Z,18.27
2019-05-21T16:08:49.179Z,15.90
2019-05-21T16:11:28.667Z,14.17
2019-05-21T16:14:05.108Z,14.77
2019-05-21T16:16:30.462Z,18.07
2019-05-21T16:18:59.270Z,16.53
2019-05-21T16:21:28.102Z,18.17
2019-05-21T16:56:08.570Z,11.80
2019-05-21T17:01:11.995Z,9.57
2019-05-21T17:03:59.976Z,6.90
2019-05-21T17:06:54.272Z,11.17
2019-05-21T17:09:58.399Z,12.43
2019-05-21T17:12:28.414Z,16.37
2019-05-21T17:15:01.148Z,12.77
2019-05-21T17:17:34.096Z,12.00
2019-05-21T17:20:03.886Z,13.77
2019-05-21T17:22:35.442Z,11.87
2019-05-21T17:25:19.388Z,12.90
2019-05-21T17:28:18.894Z,10.80
2019-05-21T17:30:51.124Z,13.90
2019-05-21T17:33:33.589Z,12.63
2019-05-21T17:36:09.008Z,13.23
2019-05-21T17:39:49.271Z,15.00
2019-05-21T17:42:28.536Z,13.03
2019-05-21T17:48:10.431Z,13.60
2019-05-21T17:50:40.319Z,13.90
2019-05-21T18:05:25.464Z,11.40
2019-05-21T18:08:01.388Z,12.13
2019-05-21T18:10:41.227Z,10.70
2019-05-21T18:13:13.704Z,10.93
2019-05-21T18:15:49.149Z,11.90
2019-05-21T18:18:30.773Z,9.83
2019-05-21T18:21:07.473Z,15.20
2019-05-21T18:23:54.656Z,11.97
2019-05-21T18:26:31.144Z,13.00
2019-05-21T18:29:07.168Z,13.13
2019-05-21T18:31:38.147Z,14.67
2019-05-21T18:34:14.382Z,10.73
2019-05-21T18:36:47.666Z,13.13
2019-05-21T18:39:21.657Z,12.60
2019-05-21T18:41:54.381Z,12.50
2019-05-21T18:44:37.967Z,10.03
2019-05-21T18:47:30.254Z,14.57
2019-05-21T18:50:33.343Z,11.67
2019-05-21T18:52:42.437Z,12.90
2019-05-21T18:55:12.357Z,13.00
2019-05-21T18:57:45.169Z,14.57
2019-05-21T19:00:15.470Z,15.13
2019-05-21T19:02:56.932Z,18.67
2019-05-21T19:05:27.136Z,18.93
2019-05-21T19:07:59.738Z,19.70
2019-05-21T19:10:31.477Z,16.57
2019-05-21T19:13:03.641Z,18.97
2019-05-21T19:15:36.413Z,20.73
2019-05-21T19:18:05.620Z,21.53
2019-05-21T19:20:35.578Z,17.57
2019-05-21T19:23:09.862Z,17.40
2019-05-21T19:25:45.658Z,20.27
2019-05-21T19:28:21.370Z,18.73
2019-05-21T19:30:58.935Z,18.70
2019-05-21T19:33:30.051Z,19.23
2019-05-21T19:36:38.676Z,23.77
2019-05-21T19:39:17.748Z,22.23
2019-05-21T19:41:46.371Z,20.90
2019-05-21T19:44:15.383Z,20.83
2019-05-21T19:46:46.266Z,22.50
2019-05-21T19:49:15.434Z,23.50
2019-05-21T19:51:47.268Z,23.33
2019-05-21T19:54:25.618Z,20.20
2019-05-21T19:56:54.658Z,21.70
2019-05-21T19:59:25.715Z,17.37
2019-05-21T20:01:56.134Z,15.57
2019-05-21T20:04:46.234Z,16.07
2019-05-21T20:07:27.061Z,14.83
2019-05-21T20:10:04.808Z,16.57
2019-05-21T20:12:37.058Z,14.73
2019-05-21T20:15:09.573Z,16.70
2019-05-21T20:18:06.446Z,17.03
2019-05-21T20:35:44.944Z,19.83
2019-05-21T20:38:18.991Z,18.33
2019-05-21T20:41:17.825Z,17.50
2019-05-21T20:44:01.055Z,15.37
2019-05-21T20:47:01.278Z,20.57
2019-05-21T20:49:53.823Z,16.30
2019-05-21T20:52:44.124Z,19.03
2019-05-21T20:55:13.900Z,20.50
2019-05-21T21:00:52.435Z,15.53
2019-05-21T21:06:35.285Z,19.27
2019-05-21T21:08:55.078Z,16.90
2019-05-21T21:12:05.300Z,17.40
2019-05-21T21:14:43.529Z,15.70
2019-05-21T21:17:14.154Z,18.87
2019-05-21T21:19:47.056Z,19.00
2019-05-21T21:22:16.017Z,18.40
2019-05-21T21:24:45.076Z,17.27
2019-05-21T21:27:19.779Z,15.13
2019-05-21T21:29:50.516Z,20.90
2019-05-21T21:32:19.666Z,16.63
2019-05-21T21:34:48.462Z,14.97
2019-05-21T21:37:22.164Z,17.80
2019-05-21T21:39:51.226Z,16.00
2019-05-21T21:42:19.948Z,17.47
2019-05-21T21:44:59.120Z,15.47
2019-05-21T21:47:42.533Z,15.60
2019-05-21T21:50:12.536Z,14.37
2019-05-21T21:52:41.778Z,16.30
2019-05-21T21:55:13.593Z,14.37
2019-05-21T21:57:42.884Z,14.63
2019-05-21T22:00:22.869Z,21.13
2019-05-21T22:02:52.332Z,14.83
2019-05-21T22:05:32.583Z,12.57
2019-05-21T22:08:01.638Z,17.30
2019-05-21T22:10:30.516Z,14.60
2019-05-21T22:13:00.977Z,13.57
2019-05-21T22:15:38.088Z,13.10
2019-05-21T22:18:07.780Z,13.53
2019-05-21T22:20:39.513Z,11.77
2019-05-21T22:23:08.593Z,12.00
2019-05-21T22:25:37.701Z,13.47
2019-05-21T22:28:06.631Z,13.27
2019-05-21T22:30:43.285Z,12.17
2019-05-21T22:33:12.805Z,10.03
2019-05-21T22:35:44.472Z,13.27
2019-05-21T22:38:13.156Z,13.13
2019-05-21T22:40:42.508Z,13.53
2019-05-21T22:43:14.290Z,11.83
2019-05-21T22:45:43.131Z,11.03
2019-05-21T22:48:12.534Z,13.03
2019-05-21T22:50:41.454Z,14.33
2019-05-21T22:53:10.319Z,12.83
2019-05-21T22:55:39.665Z,14.93
2019-05-21T22:58:10.386Z,13.07
2019-05-21T23:00:39.955Z,15.33
2019-05-21T23:03:18.544Z,14.97
2019-05-21T23:05:55.709Z,13.70
2019-05-21T23:08:25.549Z,11.97
2019-05-21T23:10:56.659Z,12.87
2019-05-21T23:13:28.924Z,12.07
2019-05-21T23:16:01.889Z,10.33
2019-05-21T23:18:30.869Z,13.10
2019-05-21T23:21:00.270Z,14.43
2019-05-21T23:23:31.209Z,14.53
2019-05-21T23:26:01.284Z,13.93
2019-05-21T23:28:30.970Z,13.53
2019-05-21T23:31:00.241Z,12.43
2019-05-21T23:33:28.986Z,13.50
2019-05-21T23:35:58.510Z,13.90
2019-05-21T23:38:27.848Z,17.07
2019-05-21T23:40:56.633Z,11.23
2019-05-21T23:43:26.406Z,11.40
2019-05-21T23:45:55.572Z,9.73
2019-05-21T23:48:24.728Z,11.33
2019-05-21T23:50:54.150Z,9.63
2019-05-21T23:53:23.266Z,9.67
2019-05-21T23:55:52.129Z,12.23
2019-05-21T23:58:20.819Z,11.23
